sensor_id;sensor_type;location;lat;lon;timestamp;P1;durP1;ratioP1;P2;durP2;ratioP2
21507;SDS011;10915;54.352;9.074;2024-01-11T00:01:46;13.87;;;9.70;;
21507;SDS011;10915;54.352;9.074;2024-01-11T00:04:12;14.40;;;9.83;;
21507;SDS011;10915;54.352;9.074;2024-01-11T00:06:42;14.07;;;9.57;;
21507;SDS011;10915;54.352;9.074;2024-01-11T00:09:08;15.33;;;8.73;;
21507;SDS011;10915;54.352;9.074;2024-01-11T00:11:34;13.17;;;7.63;;
21507;SDS011;10915;54.352;9.074;2024-01-11T00:13:59;14.67;;;7.90;;
21507;SDS011;10915;54.352;9.074;2024-01-11T00:16:25;14.23;;;7.23;;
21507;SDS011;10915;54.352;9.074;2024-01-11T00:18:51;12.63;;;7.03;;
21507;SDS011;10915;54.352;9.074;2024-01-11T00:21:18;13.37;;;10.30;;
21507;SDS011;10915;54.352;9.074;2024-01-11T00:23:44;13.73;;;10.43;;
21507;SDS011;10915;54.352;9.074;2024-01-11T00:26:12;13.47;;;9.80;;
21507;SDS011;10915;54.352;9.074;2024-01-11T00:28:38;13.43;;;10.07;;
21507;SDS011;10915;54.352;9.074;2024-01-11T00:31:03;11.30;;;9.40;;
21507;SDS011;10915;54.352;9.074;2024-01-11T00:33:29;11.63;;;9.47;;
21507;SDS011;10915;54.352;9.074;2024-01-11T00:35:55;11.53;;;9.07;;
21507;SDS011;10915;54.352;9.074;2024-01-11T00:38:20;13.47;;;9.67;;
21507;SDS011;10915;54.352;9.074;2024-01-11T00:40:46;12.17;;;9.43;;
21507;SDS011;10915;54.352;9.074;2024-01-11T00:43:12;13.60;;;9.83;;
21507;SDS011;10915;54.352;9.074;2024-01-11T00:45:37;11.23;;;9.10;;
21507;SDS011;10915;54.352;9.074;2024-01-11T00:48:03;11.30;;;9.30;;
21507;SDS011;10915;54.352;9.074;2024-01-11T00:50:29;12.70;;;9.43;;
21507;SDS011;10915;54.352;9.074;2024-01-11T00:52:55;10.47;;;8.30;;
21507;SDS011;10915;54.352;9.074;2024-01-11T00:55:21;11.87;;;8.90;;
21507;SDS011;10915;54.352;9.074;2024-01-11T00:57:46;10.97;;;8.70;;
21507;SDS011;10915;54.352;9.074;2024-01-11T01:00:12;10.33;;;8.03;;
21507;SDS011;10915;54.352;9.074;2024-01-11T01:02:41;10.40;;;8.37;;
21507;SDS011;10915;54.352;9.074;2024-01-11T01:05:07;10.27;;;8.07;;
21507;SDS011;10915;54.352;9.074;2024-01-11T01:07:33;10.50;;;7.20;;
21507;SDS011;10915;54.352;9.074;2024-01-11T01:09:58;10.47;;;7.90;;
21507;SDS011;10915;54.352;9.074;2024-01-11T01:12:24;10.47;;;7.97;;
21507;SDS011;10915;54.352;9.074;2024-01-11T01:14:50;10.77;;;8.07;;
21507;SDS011;10915;54.352;9.074;2024-01-11T01:17:16;10.53;;;7.60;;
21507;SDS011;10915;54.352;9.074;2024-01-11T01:19:43;10.87;;;6.90;;
21507;SDS011;10915;54.352;9.074;2024-01-11T01:22:09;7.83;;;5.83;;
21507;SDS011;10915;54.352;9.074;2024-01-11T01:24:34;7.70;;;5.13;;
21507;SDS011;10915;54.352;9.074;2024-01-11T01:27:01;5.20;;;4.03;;
21507;SDS011;10915;54.352;9.074;2024-01-11T01:29:27;4.00;;;2.43;;
21507;SDS011;10915;54.352;9.074;2024-01-11T01:31:52;3.93;;;2.83;;
21507;SDS011;10915;54.352;9.074;2024-01-11T01:34:18;3.93;;;2.67;;
21507;SDS011;10915;54.352;9.074;2024-01-11T01:36:44;4.07;;;2.60;;
21507;SDS011;10915;54.352;9.074;2024-01-11T01:39:11;4.70;;;2.60;;
21507;SDS011;10915;54.352;9.074;2024-01-11T01:41:36;4.17;;;2.43;;
21507;SDS011;10915;54.352;9.074;2024-01-11T01:44:02;3.40;;;2.00;;
21507;SDS011;10915;54.352;9.074;2024-01-11T01:46:28;3.60;;;1.80;;
21507;SDS011;10915;54.352;9.074;2024-01-11T01:48:55;2.73;;;1.63;;
21507;SDS011;10915;54.352;9.074;2024-01-11T01:51:24;4.33;;;2.30;;
21507;SDS011;10915;54.352;9.074;2024-01-11T01:53:53;2.90;;;1.50;;
21507;SDS011;10915;54.352;9.074;2024-01-11T01:56:20;1.73;;;1.23;;
21507;SDS011;10915;54.352;9.074;2024-01-11T01:58:47;3.27;;;1.20;;
21507;SDS011;10915;54.352;9.074;2024-01-11T02:01:15;2.40;;;1.20;;
21507;SDS011;10915;54.352;9.074;2024-01-11T02:03:41;1.80;;;1.00;;
21507;SDS011;10915;54.352;9.074;2024-01-11T02:06:08;2.27;;;1.20;;
21507;SDS011;10915;54.352;9.074;2024-01-11T02:08:34;3.57;;;1.10;;
21507;SDS011;10915;54.352;9.074;2024-01-11T02:11:00;1.90;;;1.03;;
21507;SDS011;10915;54.352;9.074;2024-01-11T02:13:26;3.00;;;1.30;;
21507;SDS011;10915;54.352;9.074;2024-01-11T02:15:52;2.53;;;1.60;;
21507;SDS011;10915;54.352;9.074;2024-01-11T02:18:17;2.53;;;1.50;;
21507;SDS011;10915;54.352;9.074;2024-01-11T02:20:43;2.77;;;1.03;;
21507;SDS011;10915;54.352;9.074;2024-01-11T02:23:12;2.07;;;1.07;;
21507;SDS011;10915;54.352;9.074;2024-01-11T02:25:42;1.30;;;0.57;;
21507;SDS011;10915;54.352;9.074;2024-01-11T02:28:08;2.57;;;1.00;;
21507;SDS011;10915;54.352;9.074;2024-01-11T02:30:34;1.50;;;0.67;;
21507;SDS011;10915;54.352;9.074;2024-01-11T02:32:59;1.77;;;0.77;;
21507;SDS011;10915;54.352;9.074;2024-01-11T02:35:26;0.87;;;0.47;;
21507;SDS011;10915;54.352;9.074;2024-01-11T02:37:53;1.73;;;0.70;;
21507;SDS011;10915;54.352;9.074;2024-01-11T02:40:19;2.13;;;0.60;;
21507;SDS011;10915;54.352;9.074;2024-01-11T02:42:45;1.13;;;0.67;;
21507;SDS011;10915;54.352;9.074;2024-01-11T02:45:11;1.43;;;0.50;;
21507;SDS011;10915;54.352;9.074;2024-01-11T02:47:37;2.93;;;0.80;;
21507;SDS011;10915;54.352;9.074;2024-01-11T02:50:03;1.87;;;0.43;;
21507;SDS011;10915;54.352;9.074;2024-01-11T02:52:30;0.80;;;0.30;;
21507;SDS011;10915;54.352;9.074;2024-01-11T02:54:55;1.37;;;0.40;;
21507;SDS011;10915;54.352;9.074;2024-01-11T02:57:22;1.03;;;0.30;;
21507;SDS011;10915;54.352;9.074;2024-01-11T02:59:49;1.20;;;0.20;;
21507;SDS011;10915;54.352;9.074;2024-01-11T03:02:16;0.70;;;0.40;;
21507;SDS011;10915;54.352;9.074;2024-01-11T03:04:42;0.73;;;0.43;;
21507;SDS011;10915;54.352;9.074;2024-01-11T03:07:08;0.57;;;0.40;;
21507;SDS011;10915;54.352;9.074;2024-01-11T03:09:33;0.30;;;0.23;;
21507;SDS011;10915;54.352;9.074;2024-01-11T03:11:59;0.73;;;0.33;;
21507;SDS011;10915;54.352;9.074;2024-01-11T03:14:25;0.65;;;0.40;;
21507;SDS011;10915;54.352;9.074;2024-01-11T03:16:50;1.20;;;0.47;;
21507;SDS011;10915;54.352;9.074;2024-01-11T03:19:16;2.20;;;0.50;;
21507;SDS011;10915;54.352;9.074;2024-01-11T03:21:45;0.83;;;0.53;;
21507;SDS011;10915;54.352;9.074;2024-01-11T03:24:11;0.67;;;0.30;;
21507;SDS011;10915;54.352;9.074;2024-01-11T03:26:37;0.30;;;0.30;;
21507;SDS011;10915;54.352;9.074;2024-01-11T03:29:03;0.50;;;0.20;;
21507;SDS011;10915;54.352;9.074;2024-01-11T03:31:29;1.90;;;0.40;;
21507;SDS011;10915;54.352;9.074;2024-01-11T03:33:54;1.53;;;0.40;;
21507;SDS011;10915;54.352;9.074;2024-01-11T03:36:22;1.23;;;0.60;;
21507;SDS011;10915;54.352;9.074;2024-01-11T03:38:50;1.20;;;0.53;;
21507;SDS011;10915;54.352;9.074;2024-01-11T03:41:15;1.47;;;0.60;;
21507;SDS011;10915;54.352;9.074;2024-01-11T03:43:41;1.23;;;0.70;;
21507;SDS011;10915;54.352;9.074;2024-01-11T03:46:06;1.67;;;0.63;;
21507;SDS011;10915;54.352;9.074;2024-01-11T03:48:32;1.17;;;0.70;;
21507;SDS011;10915;54.352;9.074;2024-01-11T03:50:58;1.07;;;0.80;;
21507;SDS011;10915;54.352;9.074;2024-01-11T03:53:23;1.80;;;0.80;;
21507;SDS011;10915;54.352;9.074;2024-01-11T03:55:49;4.10;;;1.10;;
21507;SDS011;10915;54.352;9.074;2024-01-11T03:58:14;1.87;;;1.20;;
21507;SDS011;10915;54.352;9.074;2024-01-11T04:00:40;2.77;;;1.20;;
21507;SDS011;10915;54.352;9.074;2024-01-11T04:03:06;2.23;;;1.33;;
21507;SDS011;10915;54.352;9.074;2024-01-11T04:05:32;2.23;;;1.20;;
21507;SDS011;10915;54.352;9.074;2024-01-11T04:07:57;2.37;;;1.30;;
21507;SDS011;10915;54.352;9.074;2024-01-11T04:10:23;1.87;;;0.93;;
21507;SDS011;10915;54.352;9.074;2024-01-11T04:12:48;1.37;;;0.70;;
21507;SDS011;10915;54.352;9.074;2024-01-11T04:15:14;1.33;;;0.60;;
21507;SDS011;10915;54.352;9.074;2024-01-11T04:17:40;1.13;;;0.50;;
21507;SDS011;10915;54.352;9.074;2024-01-11T04:20:06;0.90;;;0.50;;
21507;SDS011;10915;54.352;9.074;2024-01-11T04:22:33;0.53;;;0.40;;
21507;SDS011;10915;54.352;9.074;2024-01-11T04:24:59;1.77;;;0.70;;
21507;SDS011;10915;54.352;9.074;2024-01-11T04:27:25;0.97;;;0.40;;
21507;SDS011;10915;54.352;9.074;2024-01-11T04:29:51;1.10;;;0.53;;
21507;SDS011;10915;54.352;9.074;2024-01-11T04:32:16;1.37;;;0.40;;
21507;SDS011;10915;54.352;9.074;2024-01-11T04:34:42;2.30;;;0.73;;
21507;SDS011;10915;54.352;9.074;2024-01-11T04:37:08;1.43;;;0.60;;
21507;SDS011;10915;54.352;9.074;2024-01-11T04:39:33;2.67;;;0.50;;
21507;SDS011;10915;54.352;9.074;2024-01-11T04:41:59;3.40;;;0.90;;
21507;SDS011;10915;54.352;9.074;2024-01-11T04:44:25;1.07;;;0.63;;
21507;SDS011;10915;54.352;9.074;2024-01-11T04:46:51;1.40;;;0.63;;
21507;SDS011;10915;54.352;9.074;2024-01-11T04:49:17;1.33;;;0.60;;
21507;SDS011;10915;54.352;9.074;2024-01-11T04:51:42;1.90;;;0.70;;
21507;SDS011;10915;54.352;9.074;2024-01-11T04:54:08;0.87;;;0.53;;
21507;SDS011;10915;54.352;9.074;2024-01-11T04:56:33;1.50;;;1.10;;
21507;SDS011;10915;54.352;9.074;2024-01-11T04:58:59;8.27;;;1.47;;
21507;SDS011;10915;54.352;9.074;2024-01-11T05:01:25;5.73;;;1.63;;
21507;SDS011;10915;54.352;9.074;2024-01-11T05:03:50;4.90;;;2.50;;
21507;SDS011;10915;54.352;9.074;2024-01-11T05:06:20;4.60;;;1.97;;
21507;SDS011;10915;54.352;9.074;2024-01-11T05:08:47;14.47;;;2.57;;
21507;SDS011;10915;54.352;9.074;2024-01-11T05:13:49;7.70;;;2.67;;
21507;SDS011;10915;54.352;9.074;2024-01-11T05:16:23;4.70;;;2.60;;
21507;SDS011;10915;54.352;9.074;2024-01-11T05:18:50;7.70;;;3.33;;
21507;SDS011;10915;54.352;9.074;2024-01-11T05:21:17;7.83;;;3.30;;
21507;SDS011;10915;54.352;9.074;2024-01-11T05:23:43;5.93;;;3.00;;
21507;SDS011;10915;54.352;9.074;2024-01-11T05:26:09;7.00;;;3.30;;
21507;SDS011;10915;54.352;9.074;2024-01-11T05:28:35;7.83;;;3.60;;
21507;SDS011;10915;54.352;9.074;2024-01-11T05:31:03;8.17;;;3.50;;
21507;SDS011;10915;54.352;9.074;2024-01-11T05:33:34;7.93;;;3.47;;
21507;SDS011;10915;54.352;9.074;2024-01-11T05:35:59;6.83;;;3.13;;
21507;SDS011;10915;54.352;9.074;2024-01-11T05:38:25;7.37;;;3.50;;
21507;SDS011;10915;54.352;9.074;2024-01-11T05:40:51;6.87;;;3.13;;
21507;SDS011;10915;54.352;9.074;2024-01-11T05:43:16;5.60;;;2.77;;
21507;SDS011;10915;54.352;9.074;2024-01-11T05:45:42;6.10;;;3.00;;
21507;SDS011;10915;54.352;9.074;2024-01-11T05:48:09;5.60;;;2.70;;
21507;SDS011;10915;54.352;9.074;2024-01-11T05:50:36;8.17;;;3.30;;
21507;SDS011;10915;54.352;9.074;2024-01-11T05:53:01;9.33;;;3.00;;
21507;SDS011;10915;54.352;9.074;2024-01-11T05:55:27;9.13;;;3.30;;
21507;SDS011;10915;54.352;9.074;2024-01-11T05:57:53;15.20;;;4.67;;
21507;SDS011;10915;54.352;9.074;2024-01-11T06:00:19;9.37;;;3.60;;
21507;SDS011;10915;54.352;9.074;2024-01-11T06:02:45;14.20;;;4.20;;
21507;SDS011;10915;54.352;9.074;2024-01-11T06:05:11;10.47;;;4.07;;
21507;SDS011;10915;54.352;9.074;2024-01-11T06:07:40;16.60;;;4.87;;
21507;SDS011;10915;54.352;9.074;2024-01-11T06:10:06;13.13;;;4.27;;
21507;SDS011;10915;54.352;9.074;2024-01-11T06:12:33;11.13;;;4.17;;
21507;SDS011;10915;54.352;9.074;2024-01-11T06:15:00;15.70;;;5.43;;
21507;SDS011;10915;54.352;9.074;2024-01-11T06:17:26;14.60;;;5.50;;
21507;SDS011;10915;54.352;9.074;2024-01-11T06:19:51;17.93;;;5.57;;
21507;SDS011;10915;54.352;9.074;2024-01-11T06:22:17;21.17;;;6.00;;
21507;SDS011;10915;54.352;9.074;2024-01-11T06:24:43;14.33;;;5.10;;
21507;SDS011;10915;54.352;9.074;2024-01-11T06:27:09;12.87;;;2.90;;
21507;SDS011;10915;54.352;9.074;2024-01-11T06:29:34;9.43;;;2.63;;
21507;SDS011;10915;54.352;9.074;2024-01-11T06:32:00;13.13;;;4.33;;
21507;SDS011;10915;54.352;9.074;2024-01-11T06:34:26;16.60;;;5.17;;
21507;SDS011;10915;54.352;9.074;2024-01-11T06:36:52;15.87;;;5.13;;
21507;SDS011;10915;54.352;9.074;2024-01-11T06:39:18;17.90;;;6.10;;
21507;SDS011;10915;54.352;9.074;2024-01-11T06:41:43;21.37;;;6.13;;
21507;SDS011;10915;54.352;9.074;2024-01-11T06:44:09;19.20;;;6.10;;
21507;SDS011;10915;54.352;9.074;2024-01-11T06:46:35;30.50;;;7.47;;
21507;SDS011;10915;54.352;9.074;2024-01-11T06:49:01;19.13;;;6.43;;
21507;SDS011;10915;54.352;9.074;2024-01-11T06:51:27;18.77;;;6.43;;
21507;SDS011;10915;54.352;9.074;2024-01-11T06:53:52;21.07;;;6.10;;
21507;SDS011;10915;54.352;9.074;2024-01-11T06:56:18;21.50;;;6.90;;
21507;SDS011;10915;54.352;9.074;2024-01-11T06:58:46;19.33;;;7.67;;
21507;SDS011;10915;54.352;9.074;2024-01-11T07:01:12;27.13;;;8.20;;
21507;SDS011;10915;54.352;9.074;2024-01-11T07:03:38;19.97;;;7.40;;
21507;SDS011;10915;54.352;9.074;2024-01-11T07:06:04;15.70;;;6.77;;
21507;SDS011;10915;54.352;9.074;2024-01-11T07:08:30;20.77;;;7.43;;
21507;SDS011;10915;54.352;9.074;2024-01-11T07:10:57;17.77;;;6.80;;
21507;SDS011;10915;54.352;9.074;2024-01-11T07:13:23;36.50;;;9.50;;
21507;SDS011;10915;54.352;9.074;2024-01-11T07:15:49;42.70;;;10.33;;
21507;SDS011;10915;54.352;9.074;2024-01-11T07:18:16;17.47;;;7.10;;
21507;SDS011;10915;54.352;9.074;2024-01-11T07:20:42;16.20;;;6.97;;
21507;SDS011;10915;54.352;9.074;2024-01-11T07:23:08;19.60;;;8.60;;
21507;SDS011;10915;54.352;9.074;2024-01-11T07:25:34;23.07;;;8.23;;
21507;SDS011;10915;54.352;9.074;2024-01-11T07:28:00;18.93;;;7.47;;
21507;SDS011;10915;54.352;9.074;2024-01-11T07:30:26;16.23;;;7.60;;
21507;SDS011;10915;54.352;9.074;2024-01-11T07:32:51;18.63;;;7.43;;
21507;SDS011;10915;54.352;9.074;2024-01-11T07:35:18;22.47;;;9.07;;
21507;SDS011;10915;54.352;9.074;2024-01-11T07:37:45;21.03;;;8.83;;
21507;SDS011;10915;54.352;9.074;2024-01-11T07:40:10;18.93;;;7.70;;
21507;SDS011;10915;54.352;9.074;2024-01-11T07:42:40;14.53;;;6.47;;
21507;SDS011;10915;54.352;9.074;2024-01-11T07:45:06;17.47;;;7.97;;
21507;SDS011;10915;54.352;9.074;2024-01-11T07:47:32;19.90;;;8.33;;
21507;SDS011;10915;54.352;9.074;2024-01-11T07:49:58;18.87;;;8.10;;
21507;SDS011;10915;54.352;9.074;2024-01-11T07:52:24;18.07;;;8.20;;
21507;SDS011;10915;54.352;9.074;2024-01-11T07:54:50;16.27;;;7.13;;
21507;SDS011;10915;54.352;9.074;2024-01-11T07:57:16;19.80;;;8.57;;
21507;SDS011;10915;54.352;9.074;2024-01-11T07:59:41;18.40;;;8.27;;
21507;SDS011;10915;54.352;9.074;2024-01-11T08:02:08;16.03;;;7.43;;
21507;SDS011;10915;54.352;9.074;2024-01-11T08:04:34;18.30;;;8.83;;
21507;SDS011;10915;54.352;9.074;2024-01-11T08:07:03;15.73;;;8.10;;
21507;SDS011;10915;54.352;9.074;2024-01-11T08:09:30;15.03;;;7.67;;
21507;SDS011;10915;54.352;9.074;2024-01-11T08:11:56;13.27;;;7.33;;
21507;SDS011;10915;54.352;9.074;2024-01-11T08:14:21;16.53;;;8.77;;
21507;SDS011;10915;54.352;9.074;2024-01-11T08:16:47;18.03;;;8.50;;
21507;SDS011;10915;54.352;9.074;2024-01-11T08:19:13;19.87;;;8.60;;
21507;SDS011;10915;54.352;9.074;2024-01-11T08:21:42;14.63;;;7.40;;
21507;SDS011;10915;54.352;9.074;2024-01-11T08:24:07;15.07;;;7.77;;
21507;SDS011;10915;54.352;9.074;2024-01-11T08:26:33;14.30;;;7.83;;
21507;SDS011;10915;54.352;9.074;2024-01-11T08:31:29;17.03;;;8.13;;
21507;SDS011;10915;54.352;9.074;2024-01-11T08:33:55;14.00;;;7.57;;
21507;SDS011;10915;54.352;9.074;2024-01-11T08:36:21;18.57;;;8.47;;
21507;SDS011;10915;54.352;9.074;2024-01-11T08:38:46;14.17;;;7.07;;
21507;SDS011;10915;54.352;9.074;2024-01-11T08:41:12;11.63;;;7.07;;
21507;SDS011;10915;54.352;9.074;2024-01-11T08:43:38;13.60;;;7.60;;
21507;SDS011;10915;54.352;9.074;2024-01-11T08:46:04;16.93;;;7.70;;
21507;SDS011;10915;54.352;9.074;2024-01-11T08:48:30;13.33;;;6.23;;
21507;SDS011;10915;54.352;9.074;2024-01-11T08:50:55;14.87;;;6.73;;
21507;SDS011;10915;54.352;9.074;2024-01-11T08:53:21;14.40;;;7.27;;
21507;SDS011;10915;54.352;9.074;2024-01-11T08:55:47;11.43;;;6.97;;
21507;SDS011;10915;54.352;9.074;2024-01-11T08:58:12;13.13;;;7.93;;
21507;SDS011;10915;54.352;9.074;2024-01-11T09:00:38;14.47;;;7.67;;
21507;SDS011;10915;54.352;9.074;2024-01-11T09:03:04;14.50;;;7.20;;
21507;SDS011;10915;54.352;9.074;2024-01-11T09:05:29;17.40;;;7.83;;
21507;SDS011;10915;54.352;9.074;2024-01-11T09:07:55;12.60;;;6.80;;
21507;SDS011;10915;54.352;9.074;2024-01-11T09:10:21;11.23;;;7.63;;
21507;SDS011;10915;54.352;9.074;2024-01-11T09:12:47;12.80;;;7.27;;
21507;SDS011;10915;54.352;9.074;2024-01-11T09:15:13;15.63;;;7.00;;
21507;SDS011;10915;54.352;9.074;2024-01-11T09:17:39;11.73;;;6.83;;
21507;SDS011;10915;54.352;9.074;2024-01-11T09:20:05;9.83;;;5.77;;
21507;SDS011;10915;54.352;9.074;2024-01-11T09:22:31;11.97;;;6.57;;
21507;SDS011;10915;54.352;9.074;2024-01-11T09:24:56;10.77;;;6.67;;
21507;SDS011;10915;54.352;9.074;2024-01-11T09:27:22;9.60;;;6.00;;
21507;SDS011;10915;54.352;9.074;2024-01-11T09:29:47;14.10;;;7.10;;
21507;SDS011;10915;54.352;9.074;2024-01-11T09:32:13;13.60;;;6.97;;
21507;SDS011;10915;54.352;9.074;2024-01-11T09:34:39;10.10;;;5.53;;
21507;SDS011;10915;54.352;9.074;2024-01-11T09:37:04;11.53;;;6.67;;
21507;SDS011;10915;54.352;9.074;2024-01-11T09:39:30;17.53;;;6.93;;
21507;SDS011;10915;54.352;9.074;2024-01-11T09:41:59;15.53;;;7.87;;
21507;SDS011;10915;54.352;9.074;2024-01-11T09:44:31;13.83;;;7.53;;
21507;SDS011;10915;54.352;9.074;2024-01-11T09:46:58;17.07;;;7.80;;
21507;SDS011;10915;54.352;9.074;2024-01-11T09:49:27;10.53;;;6.60;;
21507;SDS011;10915;54.352;9.074;2024-01-11T09:51:55;10.23;;;6.50;;
21507;SDS011;10915;54.352;9.074;2024-01-11T09:54:22;13.80;;;6.97;;
21507;SDS011;10915;54.352;9.074;2024-01-11T09:56:50;10.47;;;6.30;;
21507;SDS011;10915;54.352;9.074;2024-01-11T09:59:18;12.43;;;5.93;;
21507;SDS011;10915;54.352;9.074;2024-01-11T10:01:49;11.43;;;4.97;;
21507;SDS011;10915;54.352;9.074;2024-01-11T10:04:15;9.00;;;5.10;;
21507;SDS011;10915;54.352;9.074;2024-01-11T10:06:41;8.97;;;4.80;;
21507;SDS011;10915;54.352;9.074;2024-01-11T10:09:07;10.10;;;4.80;;
21507;SDS011;10915;54.352;9.074;2024-01-11T10:11:33;7.37;;;4.30;;
21507;SDS011;10915;54.352;9.074;2024-01-11T10:13:59;11.17;;;4.97;;
21507;SDS011;10915;54.352;9.074;2024-01-11T10:16:27;7.43;;;4.13;;
21507;SDS011;10915;54.352;9.074;2024-01-11T10:18:53;8.43;;;4.33;;
21507;SDS011;10915;54.352;9.074;2024-01-11T10:21:20;9.07;;;4.30;;
21507;SDS011;10915;54.352;9.074;2024-01-11T10:23:46;8.60;;;3.93;;
21507;SDS011;10915;54.352;9.074;2024-01-11T10:26:11;6.37;;;4.00;;
21507;SDS011;10915;54.352;9.074;2024-01-11T10:28:42;11.00;;;5.07;;
21507;SDS011;10915;54.352;9.074;2024-01-11T10:31:11;8.87;;;4.83;;
21507;SDS011;10915;54.352;9.074;2024-01-11T10:33:37;12.23;;;4.90;;
21507;SDS011;10915;54.352;9.074;2024-01-11T10:36:03;8.27;;;4.23;;
21507;SDS011;10915;54.352;9.074;2024-01-11T10:38:33;10.63;;;4.10;;
21507;SDS011;10915;54.352;9.074;2024-01-11T10:41:01;8.87;;;5.00;;
21507;SDS011;10915;54.352;9.074;2024-01-11T10:43:30;11.47;;;4.37;;
21507;SDS011;10915;54.352;9.074;2024-01-11T10:45:59;9.20;;;3.97;;
21507;SDS011;10915;54.352;9.074;2024-01-11T10:48:28;10.27;;;4.67;;
21507;SDS011;10915;54.352;9.074;2024-01-11T10:50:58;18.43;;;12.47;;
21507;SDS011;10915;54.352;9.074;2024-01-11T10:53:48;17.70;;;12.93;;
21507;SDS011;10915;54.352;9.074;2024-01-11T10:56:16;18.07;;;13.03;;
21507;SDS011;10915;54.352;9.074;2024-01-11T10:58:42;22.77;;;12.50;;
21507;SDS011;10915;54.352;9.074;2024-01-11T11:01:10;12.87;;;6.67;;
21507;SDS011;10915;54.352;9.074;2024-01-11T11:03:37;12.80;;;5.90;;
21507;SDS011;10915;54.352;9.074;2024-01-11T11:06:04;10.77;;;5.23;;
21507;SDS011;10915;54.352;9.074;2024-01-11T11:08:31;13.63;;;8.23;;
21507;SDS011;10915;54.352;9.074;2024-01-11T11:11:00;11.10;;;6.97;;
21507;SDS011;10915;54.352;9.074;2024-01-11T11:13:28;13.20;;;5.87;;
21507;SDS011;10915;54.352;9.074;2024-01-11T11:15:54;8.97;;;4.30;;
21507;SDS011;10915;54.352;9.074;2024-01-11T11:18:22;9.43;;;4.50;;
21507;SDS011;10915;54.352;9.074;2024-01-11T11:20:48;13.27;;;6.10;;
21507;SDS011;10915;54.352;9.074;2024-01-11T11:23:16;13.83;;;6.33;;
21507;SDS011;10915;54.352;9.074;2024-01-11T11:25:47;9.53;;;5.00;;
21507;SDS011;10915;54.352;9.074;2024-01-11T11:28:14;9.43;;;4.00;;
21507;SDS011;10915;54.352;9.074;2024-01-11T11:30:42;6.27;;;3.40;;
21507;SDS011;10915;54.352;9.074;2024-01-11T11:33:09;11.37;;;3.10;;
21507;SDS011;10915;54.352;9.074;2024-01-11T11:35:54;12.30;;;3.30;;
21507;SDS011;10915;54.352;9.074;2024-01-11T11:38:22;10.63;;;2.90;;
21507;SDS011;10915;54.352;9.074;2024-01-11T11:40:51;10.20;;;3.30;;
21507;SDS011;10915;54.352;9.074;2024-01-11T11:43:18;15.70;;;3.40;;
21507;SDS011;10915;54.352;9.074;2024-01-11T11:45:49;11.27;;;3.00;;
21507;SDS011;10915;54.352;9.074;2024-01-11T11:51:27;11.00;;;3.20;;
21507;SDS011;10915;54.352;9.074;2024-01-11T11:53:50;11.90;;;2.63;;
21507;SDS011;10915;54.352;9.074;2024-01-11T11:56:20;15.13;;;3.33;;
21507;SDS011;10915;54.352;9.074;2024-01-11T11:58:47;18.87;;;4.57;;
21507;SDS011;10915;54.352;9.074;2024-01-11T12:01:15;13.07;;;2.97;;
21507;SDS011;10915;54.352;9.074;2024-01-11T12:03:42;11.43;;;2.70;;
21507;SDS011;10915;54.352;9.074;2024-01-11T12:06:14;9.83;;;2.90;;
21507;SDS011;10915;54.352;9.074;2024-01-11T12:08:45;11.47;;;3.13;;
21507;SDS011;10915;54.352;9.074;2024-01-11T12:11:16;12.10;;;2.70;;
21507;SDS011;10915;54.352;9.074;2024-01-11T12:13:47;13.17;;;3.10;;
21507;SDS011;10915;54.352;9.074;2024-01-11T12:16:13;17.80;;;3.57;;
21507;SDS011;10915;54.352;9.074;2024-01-11T12:18:39;17.73;;;3.60;;
21507;SDS011;10915;54.352;9.074;2024-01-11T12:21:06;11.60;;;2.73;;
21507;SDS011;10915;54.352;9.074;2024-01-11T12:23:32;9.20;;;2.40;;
21507;SDS011;10915;54.352;9.074;2024-01-11T12:26:03;11.60;;;2.63;;
21507;SDS011;10915;54.352;9.074;2024-01-11T12:28:32;15.53;;;2.80;;
21507;SDS011;10915;54.352;9.074;2024-01-11T12:30:58;18.93;;;4.13;;
21507;SDS011;10915;54.352;9.074;2024-01-11T12:33:24;17.07;;;4.00;;
21507;SDS011;10915;54.352;9.074;2024-01-11T12:35:51;18.67;;;3.77;;
21507;SDS011;10915;54.352;9.074;2024-01-11T12:38:17;22.57;;;3.87;;
21507;SDS011;10915;54.352;9.074;2024-01-11T12:40:43;10.37;;;2.80;;
21507;SDS011;10915;54.352;9.074;2024-01-11T12:43:12;10.80;;;2.70;;
21507;SDS011;10915;54.352;9.074;2024-01-11T12:45:38;9.50;;;2.57;;
21507;SDS011;10915;54.352;9.074;2024-01-11T12:48:06;15.43;;;4.03;;
21507;SDS011;10915;54.352;9.074;2024-01-11T12:50:33;14.47;;;3.90;;
21507;SDS011;10915;54.352;9.074;2024-01-11T12:53:13;13.90;;;3.77;;
21507;SDS011;10915;54.352;9.074;2024-01-11T12:55:45;12.93;;;3.33;;
21507;SDS011;10915;54.352;9.074;2024-01-11T12:58:12;13.83;;;3.57;;
21507;SDS011;10915;54.352;9.074;2024-01-11T13:00:39;16.37;;;4.17;;
21507;SDS011;10915;54.352;9.074;2024-01-11T13:03:05;12.50;;;2.90;;
21507;SDS011;10915;54.352;9.074;2024-01-11T13:05:31;11.60;;;3.03;;
21507;SDS011;10915;54.352;9.074;2024-01-11T13:08:00;16.20;;;3.70;;
21507;SDS011;10915;54.352;9.074;2024-01-11T13:10:35;16.03;;;3.33;;
21507;SDS011;10915;54.352;9.074;2024-01-11T13:13:02;12.70;;;3.77;;
21507;SDS011;10915;54.352;9.074;2024-01-11T13:15:28;12.37;;;3.40;;
21507;SDS011;10915;54.352;9.074;2024-01-11T13:17:56;13.33;;;3.07;;
21507;SDS011;10915;54.352;9.074;2024-01-11T13:20:22;19.53;;;3.90;;
21507;SDS011;10915;54.352;9.074;2024-01-11T13:22:49;14.40;;;3.23;;
21507;SDS011;10915;54.352;9.074;2024-01-11T13:25:18;17.67;;;3.80;;
21507;SDS011;10915;54.352;9.074;2024-01-11T13:27:44;23.60;;;4.50;;
21507;SDS011;10915;54.352;9.074;2024-01-11T13:30:10;21.10;;;4.23;;
21507;SDS011;10915;54.352;9.074;2024-01-11T13:32:35;20.17;;;4.17;;
21507;SDS011;10915;54.352;9.074;2024-01-11T13:35:02;15.17;;;4.40;;
21507;SDS011;10915;54.352;9.074;2024-01-11T13:37:28;11.73;;;3.90;;
21507;SDS011;10915;54.352;9.074;2024-01-11T13:39:54;11.63;;;3.23;;
21507;SDS011;10915;54.352;9.074;2024-01-11T13:42:20;12.50;;;3.30;;
21507;SDS011;10915;54.352;9.074;2024-01-11T13:44:46;13.93;;;3.23;;
21507;SDS011;10915;54.352;9.074;2024-01-11T13:47:11;12.73;;;2.93;;
21507;SDS011;10915;54.352;9.074;2024-01-11T13:49:38;11.93;;;3.00;;
21507;SDS011;10915;54.352;9.074;2024-01-11T13:52:03;11.27;;;3.33;;
21507;SDS011;10915;54.352;9.074;2024-01-11T13:54:29;8.13;;;2.80;;
21507;SDS011;10915;54.352;9.074;2024-01-11T13:56:55;11.67;;;2.67;;
21507;SDS011;10915;54.352;9.074;2024-01-11T13:59:20;11.33;;;3.27;;
21507;SDS011;10915;54.352;9.074;2024-01-11T14:01:46;13.93;;;3.17;;
21507;SDS011;10915;54.352;9.074;2024-01-11T14:04:12;10.20;;;3.63;;
21507;SDS011;10915;54.352;9.074;2024-01-11T14:06:37;10.93;;;3.10;;
21507;SDS011;10915;54.352;9.074;2024-01-11T14:09:03;17.90;;;3.50;;
21507;SDS011;10915;54.352;9.074;2024-01-11T14:11:32;9.97;;;3.07;;
21507;SDS011;10915;54.352;9.074;2024-01-11T14:13:58;15.20;;;3.23;;
21507;SDS011;10915;54.352;9.074;2024-01-11T14:16:23;16.37;;;3.40;;
21507;SDS011;10915;54.352;9.074;2024-01-11T14:18:49;8.17;;;2.77;;
21507;SDS011;10915;54.352;9.074;2024-01-11T14:21:14;12.57;;;3.10;;
21507;SDS011;10915;54.352;9.074;2024-01-11T14:23:40;14.87;;;3.33;;
21507;SDS011;10915;54.352;9.074;2024-01-11T14:26:06;16.70;;;3.70;;
21507;SDS011;10915;54.352;9.074;2024-01-11T14:28:31;12.93;;;3.17;;
21507;SDS011;10915;54.352;9.074;2024-01-11T14:30:57;13.53;;;3.17;;
21507;SDS011;10915;54.352;9.074;2024-01-11T14:33:24;13.53;;;3.13;;
21507;SDS011;10915;54.352;9.074;2024-01-11T14:35:54;12.70;;;3.60;;
21507;SDS011;10915;54.352;9.074;2024-01-11T14:38:19;14.13;;;3.57;;
21507;SDS011;10915;54.352;9.074;2024-01-11T14:40:45;11.97;;;3.57;;
21507;SDS011;10915;54.352;9.074;2024-01-11T14:43:11;16.03;;;4.13;;